GSPO2: Great Salt Plains Lake

Data processed at Fri Jan 05 2018 23:31


All information presented herein is the property of the government of the United States of America and may be revised or deleted at any time without prior notice.
Dissemination of this information without the expressed written consent of the Public Affairs Office, Tulsa District U.S. Army Corps of Engineers is strictly prohibited.
These data are gathered electronically and, as presented, have not undergone any form of quality control. These data are not guaranteed to be valid or correct.
Go to home page.
Go to station list.

Upstream stations:

Downstream station:
Previous Day
Next Day
Current Day
    
SHEF ID:       GSPO2     Great Salt Plains Lake
STATION TYPE:  RESERVOIR
Normal Pool:  Bottom =  1118.00, Top =  1125.00

               PRECIP  RIV-FLOW ELEVATION   STORAGE    INFLOW   RELEASE  AIR-TEMP  WIND-DIRWIND-SPEED REL-HUMID SOLAR-RAD   VOLTAGE  BAT-LOAD
                   in       cfs        ft     ac-ft       cfs       cfs         F       deg       mph         %      W/m2      volt      volt
              Ccp-Rev  Regi-Rev   Ccp-Rev   Ccp-Rev  Regi-Rev  Regi-Rev   Ccp-Rev   Ccp-Rev   Ccp-Rev   Ccp-Rev   Ccp-Rev   Ccp-Rev   Ccp-Rev
(US/Central)
01/03 00:00      0.00      ----   1179.08   1716000    234146    147226     16.41    229.30      8.10     48.26      0.00     13.53      ----
01/03 01:00      0.00      ----   1178.63   1716000    230626    143546     16.74    247.60     10.10     50.09      0.00     13.53      ----
01/03 02:00      0.00      ----   1178.16   1716000    226810    285160     16.97    249.00     11.60     54.45      0.00     13.53      ----
01/03 03:00      0.00      ----   1177.63   1716000    251965    281160     17.46    263.50     14.40     58.83      0.00     13.53      ----
01/03 04:00      0.00      ----   1177.11   1716000    277072    276960     16.81    271.20      9.90     61.99      0.00     13.53      ----
01/03 05:00      0.00      ----   1176.64   1716000    273088    273000     17.31    267.90     11.30     61.63      0.00     13.53      ----
01/03 06:00      0.00      ----   1176.13   1716000    243205    269080     18.00    267.60      9.80     63.29      0.00     13.53      ----
01/03 07:00      0.00      ----   1175.68   1716000    213147    265240     18.18    253.50      5.90     66.83      0.00     13.56      ----
01/03 08:00      0.00      ----   1175.66   1716000    158547    131746     18.28    259.60      6.60     71.91      0.00     13.57      ----
01/03 09:00      0.00      ----   1175.64   1716000    104742    131586     18.88    265.80      7.30     72.93     58.90     13.56      ----
01/03 10:00      0.00      ----   1125.17     28178         0    131597     25.72    320.70      7.60     54.82    303.10     13.55      ----
01/03 11:00      0.00      ----   1125.14     27866     51705        65     32.09    344.80     12.10     48.35    464.20     13.55      ----
01/03 12:00      0.00      ----   1125.14     27866     25367        57     34.41    348.70     11.80     46.54    568.90     13.54      ----
01/03 13:00      0.00      ----   1125.14     27866        45        57     36.00    336.20      9.60     43.02    607.90     13.54      ----
01/03 14:00      0.00      ----   1125.14     27866        56        57     37.80    332.70      9.40     39.62    575.60     13.54      ----
01/03 15:00      0.00      ----   1125.14     27866        56        57     39.13    331.40      8.00     36.60    479.00     13.55      ----
01/03 16:00      0.00      ----   1125.14     27866        45        57     40.33    329.40      7.50     34.27    325.70     13.55      ----
01/03 17:00      0.00      ----   1125.14     27866        44        57     40.69    333.60      7.50     33.11    137.80     13.55      ----
01/03 18:00      0.00      ----   1125.13     27762        43        54     37.80     40.20      3.10     36.16      3.90     13.55      ----
01/03 19:00      0.00      ----   1125.13     27762        42        52     34.18     79.10      2.40     41.03      0.00     13.55      ----
01/03 20:00      0.00      ----   1125.13     27762        41        52     29.03     84.90      1.30     49.70      0.00     13.55      ----
01/03 21:00      0.00      ----   1125.13     27762        51        52     28.35    114.80      1.80     51.63      0.00     13.55      ----
01/03 22:00      0.00      ----   1125.14     27866        51        54     24.30     51.80      2.10     63.67      0.00     13.55      ----
01/03 23:00      0.00      ----   1125.12     27658        52        52     23.32     45.00      1.10     67.56      0.00     13.55      ----